Time;durP1;ratioP1;P1;durP2;ratioP2;P2;SDS_P1;SDS_P2;PMS_P1;PMS_P2;Temp;Humidity;BMP_temperature;BMP_pressure;BME280_temperature;BME280_humidity;BME280_pressure;Samples;Min_cycle;Max_cycle;Signal;HPM_P1;HPM_P2
2023/06/10 00:02:20;;;;;;;;;;;;;;;;;;;;;
2023/06/10 00:04:52;;;;;;;2.75;1.30;;;24.60;36.80;;;;;;2400358;55;21045;-70
2023/06/10 00:07:22;;;;;;;2.90;1.23;;;24.40;36.60;;;;;;2462822;55;21150;-73
2023/06/10 00:10:29;;;;;;;;;;;24.40;36.80;;;;;;2458386;55;21870;-71
2023/06/10 00:13:00;;;;;;;2.37;1.03;;;24.30;37.50;;;;;;2461654;55;20114;-71
2023/06/10 00:15:42;;;;;;;2.85;1.50;;;24.20;36.80;;;;;;2479268;55;22104;-74
2023/06/10 00:18:36;;;;;;;2.87;1.70;;;24.10;37.40;;;;;;2238697;55;20998;-70
2023/06/10 00:21:24;;;;;;;2.30;1.20;;;24.10;37.70;;;;;;2478289;55;21193;-71
2023/06/10 00:24:11;;;;;;;2.72;1.48;;;24.00;37.70;;;;;;2474701;55;21942;-71
2023/06/10 00:26:39;;;;;;;2.72;1.48;;;23.90;37.70;;;;;;2272877;56;20954;-71
2023/06/10 00:29:05;;;;;;;2.50;1.40;;;23.80;37.70;;;;;;2519827;55;21038;-71
2023/06/10 00:31:41;;;;;;;3.37;1.60;;;23.80;37.80;;;;;;2523367;55;20997;-70
2023/06/10 00:34:11;;;;;;;2.47;1.30;;;23.70;37.90;;;;;;2511746;55;21029;-70
2023/06/10 00:36:43;;;;;;;2.75;1.55;;;23.70;38.00;;;;;;2518219;55;21536;-71
2023/06/10 00:39:09;;;;;;;3.05;1.40;;;23.60;37.90;;;;;;2285769;56;21062;-72
2023/06/10 00:41:36;;;;;;;3.22;1.50;;;23.50;37.90;;;;;;2288056;56;20933;-70
2023/06/10 00:44:02;;;;;;;2.65;1.33;;;23.50;38.60;;;;;;2519751;55;21577;-71
2023/06/10 00:46:31;;;;;;;4.03;1.70;;;23.40;38.20;;;;;;2519985;55;20994;-71
2023/06/10 00:49:02;;;;;;;3.25;1.67;;;23.40;38.30;;;;;;2520232;55;20970;-71
2023/06/10 00:51:28;;;;;;;2.50;1.30;;;23.30;38.60;;;;;;2520122;55;21049;-72
2023/06/10 00:53:55;;;;;;;2.53;1.52;;;23.30;38.60;;;;;;2290548;55;21018;-70
2023/06/10 00:56:21;;;;;;;2.97;1.62;;;23.20;38.50;;;;;;2522215;55;21021;-70
2023/06/10 00:58:47;;;;;;;2.85;1.45;;;23.20;38.70;;;;;;2519891;55;20922;-70
2023/06/10 01:01:14;;;;;;;2.80;1.52;;;23.20;38.80;;;;;;2519956;55;20977;-72
2023/06/10 01:03:40;;;;;;;3.00;1.30;;;23.10;38.70;;;;;;2519614;55;20937;-71
2023/06/10 01:06:20;;;;;;;3.15;1.50;;;23.00;38.70;;;;;;2285452;56;20957;-70
2023/06/10 01:08:58;;;;;;;3.25;1.37;;;23.00;38.90;;;;;;2519866;55;20961;-70
2023/06/10 01:11:41;;;;;;;3.08;1.40;;;23.00;39.00;;;;;;2286364;56;20985;-70
2023/06/10 01:14:08;;;;;;;2.85;1.37;;;22.90;39.10;;;;;;2286132;56;20946;-70
2023/06/10 01:16:36;;;;;;;2.67;1.40;;;22.80;39.00;;;;;;2286140;56;20962;-71
2023/06/10 01:19:03;;;;;;;2.67;1.45;;;22.70;39.00;;;;;;2522860;55;21558;-73
2023/06/10 01:21:30;;;;;;;3.30;1.65;;;22.70;39.10;;;;;;2286363;55;20978;-70
2023/06/10 01:23:59;;;;;;;3.33;1.55;;;22.70;39.30;;;;;;2520251;55;20954;-74
2023/06/10 01:26:28;;;;;;;3.00;1.60;;;22.60;39.30;;;;;;2519956;55;21028;-71
2023/06/10 01:29:08;;;;;;;2.80;1.52;;;22.50;39.30;;;;;;2520230;55;21009;-70
2023/06/10 01:31:54;;;;;;;2.87;1.45;;;22.50;39.60;;;;;;2520438;55;20995;-71
2023/06/10 01:34:21;;;;;;;2.35;1.27;;;22.50;40.30;;;;;;2287956;55;21069;-70
2023/06/10 01:36:48;;;;;;;2.72;1.58;;;22.40;39.60;;;;;;2520014;55;20955;-71
2023/06/10 01:39:16;;;;;;;3.00;1.73;;;22.30;39.60;;;;;;2520174;55;20934;-71
2023/06/10 01:41:42;;;;;;;2.65;1.40;;;22.30;39.70;;;;;;2522906;55;21022;-71
2023/06/10 01:44:09;;;;;;;2.97;1.60;;;22.20;39.60;;;;;;2286477;55;21459;-71
2023/06/10 01:46:37;;;;;;;2.80;1.67;;;22.20;39.70;;;;;;2517232;55;20978;-70
2023/06/10 01:49:03;;;;;;;2.65;1.45;;;22.10;39.80;;;;;;2283821;56;21475;-70
2023/06/10 01:51:31;;;;;;;3.67;1.75;;;22.10;39.80;;;;;;2518470;55;21357;-71
2023/06/10 01:53:57;;;;;;;3.15;1.87;;;22.10;39.90;;;;;;2518260;55;20957;-73
2023/06/10 01:56:24;;;;;;;3.28;1.60;;;22.00;40.00;;;;;;2519529;55;20986;-70
2023/06/10 01:58:50;;;;;;;2.90;1.60;;;22.00;40.10;;;;;;2520527;55;20990;-69
2023/06/10 02:01:17;;;;;;;2.95;1.80;;;21.90;40.10;;;;;;2284260;55;21070;-71
2023/06/10 02:03:43;;;;;;;3.42;1.75;;;21.80;40.20;;;;;;2284989;56;21508;-69
2023/06/10 02:06:09;;;;;;;3.65;1.85;;;21.80;40.40;;;;;;2518017;55;21001;-72
2023/06/10 02:08:38;;;;;;;3.15;1.67;;;21.80;40.60;;;;;;2518000;55;20967;-70
2023/06/10 02:11:04;;;;;;;3.10;1.80;;;21.70;40.60;;;;;;2289593;55;21014;-72
2023/06/10 02:13:30;;;;;;;3.50;1.90;;;21.70;40.60;;;;;;2518313;55;21338;-73
2023/06/10 02:15:59;;;;;;;3.15;1.70;;;21.60;40.70;;;;;;2517438;55;21006;-70
2023/06/10 02:18:26;;;;;;;2.90;1.67;;;21.60;40.80;;;;;;2284222;56;20994;-69
2023/06/10 02:20:53;;;;;;;2.90;1.77;;;21.60;40.80;;;;;;2517656;55;20934;-70
2023/06/10 02:23:19;;;;;;;2.87;1.60;;;21.50;40.80;;;;;;2517786;55;21414;-71
2023/06/10 02:25:48;;;;;;;4.35;1.92;;;21.50;40.90;;;;;;2263154;55;21022;-70
2023/06/10 02:28:14;;;;;;;3.58;1.67;;;21.40;40.90;;;;;;2478708;55;20978;-73
2023/06/10 02:30:43;;;;;;;3.10;1.70;;;21.40;40.90;;;;;;2473869;55;21011;-71
2023/06/10 02:33:12;;;;;;;3.80;2.00;;;21.30;41.10;;;;;;2251385;56;21965;-69
2023/06/10 02:35:38;;;;;;;3.05;1.80;;;21.30;41.10;;;;;;2261472;55;21024;-70
2023/06/10 02:38:05;;;;;;;2.70;1.50;;;21.20;41.10;;;;;;2250168;56;21799;-69
2023/06/10 02:40:31;;;;;;;2.60;1.62;;;21.20;41.20;;;;;;2258555;55;21044;-70
2023/06/10 02:42:59;;;;;;;3.67;1.95;;;21.10;41.20;;;;;;2464812;55;21001;-70
2023/06/10 02:45:25;;;;;;;3.05;1.67;;;21.10;41.40;;;;;;2459761;55;21570;-70
2023/06/10 02:47:52;;;;;;;3.50;1.90;;;21.10;41.50;;;;;;2503482;55;20950;-70
2023/06/10 02:50:19;;;;;;;3.00;1.70;;;21.00;41.50;;;;;;2521579;55;20993;-70
2023/06/10 02:52:45;;;;;;;3.40;1.87;;;21.00;41.60;;;;;;2521018;55;20942;-70
2023/06/10 02:55:12;;;;;;;3.30;1.95;;;21.00;41.60;;;;;;2286928;55;20945;-72
2023/06/10 02:57:39;;;;;;;3.58;2.12;;;21.00;41.70;;;;;;2521233;55;21041;-70
2023/06/10 03:00:10;;;;;;;3.37;1.98;;;21.00;41.80;;;;;;2521387;55;21843;-70
2023/06/10 03:02:38;;;;;;;2.87;1.70;;;20.90;42.40;;;;;;2287580;55;20965;-69
2023/06/10 03:05:09;;;;;;;2.85;1.60;;;20.90;41.80;;;;;;2287421;55;20945;-70
2023/06/10 03:07:36;;;;;;;3.35;1.70;;;20.90;41.90;;;;;;2286416;55;20954;-69
2023/06/10 03:10:05;;;;;;;3.78;1.98;;;20.90;42.00;;;;;;2286520;55;20954;-70
2023/06/10 03:12:33;;;;;;;2.70;1.60;;;20.80;42.00;;;;;;2287693;55;20958;-70
2023/06/10 03:14:59;;;;;;;3.75;2.00;;;20.80;42.10;;;;;;2521484;55;20949;-69
2023/06/10 03:17:25;;;;;;;3.83;1.80;;;20.80;42.10;;;;;;2521297;55;20984;-72
2023/06/10 03:19:52;;;;;;;4.05;2.05;;;20.80;42.20;;;;;;2520996;55;20961;-73
2023/06/10 03:22:20;;;;;;;5.47;2.20;;;20.70;42.20;;;;;;2521128;55;20941;-72
2023/06/10 03:24:50;;;;;;;3.28;1.85;;;20.70;42.40;;;;;;2287432;55;20981;-69
2023/06/10 03:27:16;;;;;;;3.05;1.80;;;20.70;42.50;;;;;;2288105;55;21038;-73
2023/06/10 03:29:44;;;;;;;2.65;1.60;;;20.70;42.50;;;;;;2287545;55;20937;-72
2023/06/10 03:32:11;;;;;;;3.28;1.90;;;20.70;42.50;;;;;;2521706;55;20949;-69
2023/06/10 03:34:38;;;;;;;3.10;1.87;;;20.60;42.50;;;;;;2287347;55;20990;-73
2023/06/10 03:37:06;;;;;;;3.55;2.00;;;20.60;42.60;;;;;;2286335;55;21251;-74
2023/06/10 03:39:35;;;;;;;2.95;1.73;;;20.60;42.70;;;;;;2521372;55;21044;-70
2023/06/10 03:42:01;;;;;;;4.28;1.83;;;20.60;42.70;;;;;;2287430;55;21029;-70
2023/06/10 03:44:28;;;;;;;4.28;2.20;;;20.60;42.70;;;;;;2521081;55;21001;-74
2023/06/10 03:46:57;;;;;;;3.20;1.77;;;20.60;42.80;;;;;;2286949;55;20965;-72
2023/06/10 03:49:25;;;;;;;3.20;1.90;;;20.50;42.70;;;;;;2287056;55;20962;-71
2023/06/10 03:51:54;;;;;;;3.45;1.95;;;20.50;42.90;;;;;;2286585;55;21009;-69
2023/06/10 03:54:22;;;;;;;2.97;1.70;;;20.50;43.10;;;;;;2479671;55;21621;-70
2023/06/10 03:56:49;;;;;;;4.03;2.47;;;20.50;43.10;;;;;;2262158;56;21506;-69
2023/06/10 03:59:16;;;;;;;3.55;2.20;;;20.40;43.10;;;;;;2488053;55;20952;-72
2023/06/10 04:01:43;;;;;;;3.47;2.10;;;20.40;43.30;;;;;;2260195;55;20958;-69
2023/06/10 04:04:10;;;;;;;3.50;2.10;;;20.40;43.30;;;;;;2518513;54;20951;-71
2023/06/10 04:06:37;;;;;;;3.40;2.12;;;20.40;43.30;;;;;;2263894;56;21456;-72
2023/06/10 04:09:03;;;;;;;3.12;1.90;;;20.40;43.40;;;;;;2256902;56;21083;-69
2023/06/10 04:11:30;;;;;;;2.90;1.70;;;20.30;43.30;;;;;;2469341;55;21907;-70
2023/06/10 04:13:56;;;;;;;7.22;2.45;;;20.30;43.40;;;;;;2261609;56;20927;-70
2023/06/10 04:16:22;;;;;;;3.40;2.08;;;20.30;43.70;;;;;;2490473;55;20958;-69
2023/06/10 04:18:49;;;;;;;3.85;2.40;;;20.30;43.80;;;;;;2490783;55;21389;-70
2023/06/10 04:21:15;;;;;;;4.20;2.70;;;20.30;44.00;;;;;;2490287;55;21018;-72
2023/06/10 04:23:43;;;;;;;3.92;2.33;;;20.30;44.40;;;;;;2261623;56;20991;-71
2023/06/10 04:26:12;;;;;;;5.22;2.50;;;20.30;44.50;;;;;;2262091;55;21026;-71
2023/06/10 04:28:38;;;;;;;3.72;2.12;;;20.30;44.50;;;;;;2491145;55;21065;-70
2023/06/10 04:31:04;;;;;;;4.10;2.20;;;20.30;44.50;;;;;;2490415;55;20923;-73
2023/06/10 04:33:31;;;;;;;4.03;2.03;;;20.30;44.60;;;;;;2490437;55;21011;-70
2023/06/10 04:35:57;;;;;;;3.80;2.12;;;20.30;44.60;;;;;;2497235;55;21706;-70
2023/06/10 04:38:24;;;;;;;4.10;2.30;;;20.30;44.60;;;;;;2288004;55;20940;-72
2023/06/10 04:40:50;;;;;;;3.72;2.00;;;20.30;44.60;;;;;;2522561;54;21071;-70
2023/06/10 04:43:17;;;;;;;9.93;2.20;;;20.30;44.60;;;;;;2522260;55;20999;-70
2023/06/10 04:45:46;;;;;;;3.85;2.22;;;20.30;44.70;;;;;;2520872;55;21939;-69
2023/06/10 04:48:13;;;;;;;3.33;1.83;;;20.40;44.80;;;;;;2289166;55;21283;-69
2023/06/10 04:50:40;;;;;;;3.40;2.10;;;20.40;45.00;;;;;;2522746;54;20959;-71
2023/06/10 04:53:07;;;;;;;3.55;2.12;;;20.40;44.90;;;;;;2287496;55;20911;-70
2023/06/10 04:55:36;;;;;;;3.58;2.25;;;20.40;45.00;;;;;;2522628;54;21405;-72
2023/06/10 04:58:02;;;;;;;4.50;2.08;;;20.40;45.00;;;;;;2522810;55;21057;-71
2023/06/10 05:00:29;;;;;;;3.33;2.12;;;20.50;45.10;;;;;;2523033;55;20932;-71
2023/06/10 05:02:55;;;;;;;3.87;2.40;;;20.40;45.00;;;;;;2522822;55;20955;-72
2023/06/10 05:05:22;;;;;;;4.20;2.70;;;20.50;45.20;;;;;;2522510;55;20944;-72
2023/06/10 05:07:48;;;;;;;4.05;2.50;;;20.50;45.20;;;;;;2522570;54;21382;-69
2023/06/10 05:10:14;;;;;;;3.67;2.28;;;20.50;45.20;;;;;;2519818;55;20975;-70
2023/06/10 05:12:41;;;;;;;4.00;2.20;;;20.50;45.30;;;;;;2287650;55;21485;-69
2023/06/10 05:15:08;;;;;;;3.60;2.20;;;20.50;45.30;;;;;;2288062;55;21365;-70
2023/06/10 05:17:34;;;;;;;3.47;2.40;;;20.60;45.50;;;;;;2522773;55;21818;-70
2023/06/10 05:20:02;;;;;;;3.60;2.40;;;20.60;45.60;;;;;;2291673;55;21023;-70
2023/06/10 05:22:34;;;;;;;3.60;2.25;;;20.60;45.60;;;;;;2521841;55;20983;-73
2023/06/10 05:25:00;;;;;;;4.68;2.67;;;20.60;45.60;;;;;;2522686;55;20940;-70
2023/06/10 05:27:27;;;;;;;4.28;2.80;;;20.70;45.70;;;;;;2522629;54;20976;-70
2023/06/10 05:29:53;;;;;;;4.22;2.35;;;20.70;45.70;;;;;;2288260;55;21098;-71
2023/06/10 05:32:19;;;;;;;3.75;2.50;;;20.70;45.80;;;;;;2522336;55;20975;-72
2023/06/10 05:34:46;;;;;;;3.80;2.37;;;20.80;45.90;;;;;;2522053;55;20951;-73
2023/06/10 05:37:13;;;;;;;4.28;2.40;;;20.80;46.00;;;;;;2522830;55;20927;-70
2023/06/10 05:39:40;;;;;;;3.40;2.28;;;20.90;46.00;;;;;;2523237;54;21698;-73
2023/06/10 05:42:07;;;;;;;4.18;2.87;;;20.90;46.10;;;;;;2288133;55;21023;-72
2023/06/10 05:44:36;;;;;;;3.83;2.85;;;20.90;46.20;;;;;;2522193;55;20978;-71
2023/06/10 05:47:03;;;;;;;4.20;2.83;;;21.00;46.40;;;;;;2522553;55;21438;-70
2023/06/10 05:49:30;;;;;;;3.50;2.40;;;21.00;46.30;;;;;;2522437;55;21026;-71
2023/06/10 05:51:58;;;;;;;4.10;2.33;;;21.10;46.40;;;;;;2522148;55;20976;-71
2023/06/10 05:54:26;;;;;;;3.85;2.65;;;21.10;46.40;;;;;;2287909;55;20956;-71
2023/06/10 05:56:56;;;;;;;4.22;2.60;;;21.20;46.50;;;;;;2288455;55;21030;-70
2023/06/10 05:59:23;;;;;;;4.40;2.50;;;21.20;46.50;;;;;;2522634;55;20991;-71
2023/06/10 06:01:52;;;;;;;4.22;2.47;;;21.30;46.50;;;;;;2521728;55;20984;-70
2023/06/10 06:04:19;;;;;;;4.80;2.55;;;21.30;46.50;;;;;;2522322;55;20995;-70
2023/06/10 06:06:45;;;;;;;3.80;2.53;;;21.40;46.60;;;;;;2522936;55;20951;-71
2023/06/10 06:09:12;;;;;;;3.72;2.33;;;21.50;46.50;;;;;;2523185;55;20972;-72
2023/06/10 06:11:38;;;;;;;4.55;2.78;;;21.50;46.50;;;;;;2522792;55;21023;-71
2023/06/10 06:14:06;;;;;;;4.10;2.72;;;21.60;46.60;;;;;;2522675;55;20951;-70
2023/06/10 06:16:32;;;;;;;3.42;2.42;;;21.60;46.50;;;;;;2288501;55;20995;-70
2023/06/10 06:18:59;;;;;;;3.37;2.20;;;21.70;46.50;;;;;;2288397;55;20932;-73
2023/06/10 06:21:25;;;;;;;4.30;2.80;;;21.80;46.50;;;;;;2521330;55;21387;-70
2023/06/10 06:23:51;;;;;;;5.12;2.92;;;21.90;47.20;;;;;;2290044;55;20972;-73
2023/06/10 06:26:20;;;;;;;4.12;2.92;;;21.90;46.60;;;;;;2522485;55;21030;-70
2023/06/10 06:28:46;;;;;;;5.53;2.85;;;22.00;46.60;;;;;;2523172;55;20995;-71
2023/06/10 06:31:13;;;;;;;4.78;2.90;;;22.10;46.60;;;;;;2288502;55;21019;-72
2023/06/10 06:33:39;;;;;;;3.65;2.45;;;22.10;46.50;;;;;;2521107;55;21043;-73
2023/06/10 06:36:06;;;;;;;3.97;2.67;;;22.20;46.50;;;;;;2292304;55;21039;-72
2023/06/10 06:38:33;;;;;;;4.28;2.70;;;22.30;46.50;;;;;;2520547;55;21003;-72
2023/06/10 06:41:03;;;;;;;4.65;3.00;;;22.30;46.50;;;;;;2522607;54;20983;-72
2023/06/10 06:43:33;;;;;;;4.62;3.08;;;22.40;46.70;;;;;;2522621;54;21441;-72
2023/06/10 06:46:01;;;;;;;4.03;2.75;;;22.50;46.90;;;;;;2288460;55;21006;-71
2023/06/10 06:48:28;;;;;;;3.85;2.75;;;22.60;47.00;;;;;;2521893;55;21027;-71
2023/06/10 06:50:56;;;;;;;4.20;3.10;;;22.70;47.10;;;;;;2522494;55;21019;-75
2023/06/10 06:53:22;;;;;;;4.07;2.55;;;22.70;47.10;;;;;;2522971;55;21031;-71
2023/06/10 06:57:12;;;;;;;4.20;2.87;;;22.80;47.10;;;;;;2523403;54;20963;-74
2023/06/10 07:00:00;;;;;;;3.70;2.33;;;23.00;47.30;;;;;;2293857;55;21559;-69
2023/06/10 07:02:26;;;;;;;3.70;2.55;;;23.10;47.10;;;;;;2522817;55;20960;-74
2023/06/10 07:04:55;;;;;;;5.12;2.83;;;23.20;47.00;;;;;;2288635;55;20999;-72
2023/06/10 07:07:44;;;;;;;3.87;2.87;;;23.30;47.20;;;;;;2522679;55;21872;-70
2023/06/10 07:10:46;;;;;;;4.72;3.05;;;23.30;47.20;;;;;;2522753;55;21027;-72
2023/06/10 07:13:29;;;;;;;4.57;2.83;;;23.50;47.80;;;;;;2489447;55;20946;-72
2023/06/10 07:21:48;;;;;;;4.32;3.10;;;23.60;47.50;;;;;;2458636;55;21026;-72
2023/06/10 07:25:24;;;;;;;4.57;1.98;;;23.70;47.50;;;;;;2471680;55;21015;-71
2023/06/10 08:34:10;;;;;;;4.12;3.03;;;25.60;46.20;;;;;;2300478;60;21660;-73
2023/06/10 08:57:11;;;;;;;5.05;2.80;;;26.40;45.10;;;;;;2247372;61;21089;-74
2023/06/10 09:44:41;;;;;;;4.12;2.45;;;27.50;44.30;;;;;;2285204;60;21056;-75
2023/06/10 11:06:47;;;;;;;3.37;2.37;;;29.10;43.00;;;;;;2299578;59;21076;-75
2023/06/10 11:13:28;;;;;;;2.78;1.77;;;30.30;40.90;;;;;;2338513;58;21003;-80
2023/06/10 11:16:41;;;;;;;3.45;2.15;;;30.30;40.90;;;;;;2330819;57;21045;-76
2023/06/10 11:20:10;;;;;;;2.80;1.98;;;30.40;41.00;;;;;;2330989;58;21683;-78
2023/06/10 11:26:35;;;;;;;3.22;2.08;;;30.50;40.80;;;;;;2277644;58;21552;-82
2023/06/10 11:36:33;;;;;;;2.50;1.48;;;30.80;40.20;;;;;;2333079;58;21027;-79
2023/06/10 11:39:34;;;;;;;2.75;1.45;;;30.80;39.50;;;;;;2230277;60;21106;-81
2023/06/10 11:43:33;;;;;;;;;;;;;;;;;;;;;
2023/06/10 11:55:04;;;;;;;2.25;1.25;;;31.10;38.90;;;;;;2205447;59;21977;-79
2023/06/10 12:07:12;;;;;;;2.30;1.12;;;31.30;38.30;;;;;;2302025;59;21019;-80
2023/06/10 12:10:00;;;;;;;2.22;1.20;;;31.60;38.20;;;;;;2256160;60;21057;-79
2023/06/10 12:16:01;;;;;;;2.20;1.25;;;31.70;38.00;;;;;;2295804;58;21096;-80
2023/06/10 12:19:22;;;;;;;3.53;1.30;;;31.70;38.00;;;;;;2351670;57;21126;-79
2023/06/10 12:23:33;;;;;;;2.70;1.52;;;31.80;37.30;;;;;;2378169;57;20995;-80
2023/06/10 12:26:37;;;;;;;3.08;1.30;;;31.90;37.20;;;;;;2367772;57;25580;-79
2023/06/10 12:30:01;;;;;;;2.62;1.48;;;31.90;36.80;;;;;;2390651;56;21064;-79
2023/06/10 12:33:30;;;;;;;2.55;1.40;;;31.90;37.10;;;;;;2388787;57;21023;-80
2023/06/10 12:37:19;;;;;;;2.80;1.55;;;31.90;37.30;;;;;;2384304;57;21143;-79
2023/06/10 12:40:23;;;;;;;3.75;1.48;;;32.00;37.00;;;;;;2388936;57;21034;-81
2023/06/10 12:45:20;;;;;;;;;;;;;;;;;;;;;
2023/06/10 13:07:40;;;;;;;;;;;;;;;;;;;;;
2023/06/10 13:27:23;;;;;;;2.53;1.40;;;32.50;36.00;;;;;;2430158;55;21147;-74
2023/06/10 13:30:17;;;;;;;2.12;1.10;;;32.50;35.70;;;;;;2399583;55;21529;-76
2023/06/10 13:37:37;;;;;;;2.65;1.23;;;32.60;35.60;;;;;;2392095;57;21027;-75
2023/06/10 13:41:06;;;;;;;2.37;1.30;;;32.60;35.00;;;;;;2418544;56;21534;-75
2023/06/10 15:43:52;;;;;;;2.20;1.20;;;33.60;33.70;;;;;;2353352;57;21646;-78
2023/06/10 16:21:15;;;;;;;;;;;;;;;;;;;;;
2023/06/10 16:28:27;;;;;;;2.17;0.98;;;33.30;33.30;;;;;;2381892;57;21093;-75
2023/06/10 16:51:00;;;;;;;;;;;;;;;;;;;;;
2023/06/10 17:26:14;;;;;;;1.52;0.80;;;33.30;33.10;;;;;;2238714;57;21564;-75
2023/06/10 17:29:32;;;;;;;;;;;;;;;;;;;;;
2023/06/10 17:32:57;;;;;;;;;;;;;;;;;;;;;
2023/06/10 18:17:19;;;;;;;2.05;0.93;;;33.60;33.80;;;;;;2296954;59;21193;-75
2023/06/10 18:20:22;;;;;;;1.85;0.90;;;35.30;33.60;;;;;;2528080;53;23574;-76
2023/06/10 18:22:51;;;;;;;2.20;1.08;;;35.40;33.30;;;;;;2505174;53;20976;-76
2023/06/10 18:25:23;;;;;;;2.80;1.30;;;35.50;33.20;;;;;;2453323;54;20994;-76
2023/06/10 18:28:09;;;;;;;3.03;1.17;;;35.50;33.00;;;;;;2475581;55;20973;-77
2023/06/10 18:31:02;;;;;;;2.17;1.20;;;35.50;32.90;;;;;;2522049;54;21234;-76
2023/06/10 18:33:50;;;;;;;2.33;1.20;;;35.50;32.90;;;;;;2271509;53;21058;-76
2023/06/10 18:36:20;;;;;;;2.40;1.17;;;35.50;32.80;;;;;;2514791;54;20920;-77
2023/06/10 18:38:50;;;;;;;2.00;1.20;;;35.50;32.80;;;;;;2534780;53;21043;-76
2023/06/10 18:41:17;;;;;;;2.17;1.25;;;35.40;32.60;;;;;;2519849;54;21894;-75
2023/06/10 18:43:55;;;;;;;2.40;1.30;;;35.30;32.60;;;;;;2297701;54;21055;-76
2023/06/10 18:46:26;;;;;;;2.40;1.30;;;35.20;32.80;;;;;;2292238;54;21075;-76
2023/06/10 18:49:05;;;;;;;2.37;1.30;;;35.00;32.90;;;;;;2523428;53;20973;-76
2023/06/10 18:51:37;;;;;;;2.67;1.37;;;34.90;32.90;;;;;;2254115;56;21472;-75
2023/06/10 18:54:12;;;;;;;6.22;3.85;;;34.80;33.00;;;;;;2504729;54;20963;-75
2023/06/10 18:56:57;;;;;;;5.32;3.47;;;34.60;32.80;;;;;;2510799;55;20989;-75
2023/06/10 19:00:54;;;;;;;3.33;2.22;;;34.50;32.90;;;;;;2473006;55;21020;-75
2023/06/10 19:03:50;;;;;;;3.05;1.77;;;34.30;33.10;;;;;;2487251;55;21137;-75
2023/06/10 19:07:09;;;;;;;2.97;1.40;;;34.10;33.30;;;;;;2400213;56;20978;-75
2023/06/10 19:21:24;;;;;;;2.72;1.10;;;33.60;33.30;;;;;;2423053;56;21557;-75
2023/06/10 19:47:59;;;;;;;1.70;0.82;;;32.70;33.50;;;;;;2513647;54;20977;-76
2023/06/10 19:51:05;;;;;;;2.10;1.02;;;31.20;33.90;;;;;;2489788;54;21432;-75
2023/06/10 20:29:58;;;;;;;;;;;;;;;;;;;;;
2023/06/10 21:05:19;;;;;;;;;;;;;;;;;;;;;
2023/06/10 21:23:11;;;;;;;2.40;1.12;;;28.80;35.30;;;;;;2448485;54;21855;-75
2023/06/10 23:20:41;;;;;;;1.77;0.77;;;26.80;37.30;;;;;;2480628;54;20919;-75
2023/06/10 23:51:39;;;;;;;;;;;;;;;;;;;;;
2023/06/10 23:54:35;;;;;;;2.65;0.88;;;24.40;40.30;;;;;;2531673;54;21133;-75
2023/06/10 23:57:34;;;;;;;;;;;;;;;;;;;;;
